Elliot Lake, Ontario

7:20 PM EDT on August 28, 2016 (GMT -0400)
Elliot Lake area 1 | | Change Station

Elev 1014 ft 46.39 °N, 82.66 °W | Updated 14 minutes ago

Clear
Clear
73.2 °F
Feels Like 76 °F
N
3.2
Wind Variable Wind from West

Today
High -- | Low -- °F
--% Chance of Precip.
Yesterday
High -- | Low -- °F
Precip. -- in
Pressure 30.15 in
Visibility 9.0 miles
Clouds Clear
Heat Index 76 °F
Dew Point 58 °F
Humidity 60%
Rainfall 0.07 in
Snow Depth Not available.
6:46 AM 8:15 PM
Waning Crescent, 12% visible
METAR CYZE 282300Z AUTO 29008G18KT 9SM CLR 23/15 A3015 RMK SLP210 DENSITY ALT 1400FT
Pressure 30.15 in
Visibility 9.0 miles
Clouds Clear
Heat Index 76 °F
Dew Point 58 °F
Humidity 60%
Rainfall 0.07 in
Snow Depth Not available.
6:46 AM 8:15 PM
Waning Crescent, 12% visible
METAR CYZE 282300Z AUTO 29008G18KT 9SM CLR 23/15 A3015 RMK SLP210 DENSITY ALT 1400FT

10-Day Weather Forecast

No radar image for this location.
×

Almanac

Astronomy

Aug. 28, 2016 Rise Set
Actual Time
Civil Twilight
Nautical Twilight
Astronomical Twilight
Moon
Length of Visible Light
Length of Day
Tomorrow will be .
, % of the Moon is Illuminated

Today's Extremes

Country Highs Country Lows

Community

WunderPhotos

Upload Photos

1,935,711 photos uploaded!

WunderBlog® & News

Nearby

Air Quality

  Air Quality AQ Index Pollutant
Not available.

Snow Depth

Station Depth Elevation

Earthquake Activity

City Distance Mag. Time & Date
Minimum magnitude displayed is 2.5.

Coastal Water Temperatures

Place Temperature

Stations

Nearby Weather Stations

Station Location Temp. Windchill Dew Point Humidity Wind Precip. Elev Updated Type
                   

Watches & Warnings

There are currently no watches in effect.